sensor_id;sensor_type;location;lat;lon;timestamp;P1;durP1;ratioP1;P2;durP2;ratioP2
9398;SDS011;4739;49.334;8.792;2022-12-29T00:01:16;18.60;;;15.03;;
9398;SDS011;4739;49.334;8.792;2022-12-29T00:03:44;17.70;;;14.77;;
9398;SDS011;4739;49.334;8.792;2022-12-29T00:06:10;19.00;;;14.80;;
9398;SDS011;4739;49.334;8.792;2022-12-29T00:08:36;17.50;;;14.43;;
9398;SDS011;4739;49.334;8.792;2022-12-29T00:11:08;19.37;;;14.33;;
9398;SDS011;4739;49.334;8.792;2022-12-29T00:13:34;17.23;;;13.77;;
9398;SDS011;4739;49.334;8.792;2022-12-29T00:16:19;18.73;;;14.67;;
9398;SDS011;4739;49.334;8.792;2022-12-29T00:18:44;19.20;;;14.83;;
9398;SDS011;4739;49.334;8.792;2022-12-29T00:21:13;19.07;;;14.77;;
9398;SDS011;4739;49.334;8.792;2022-12-29T00:23:58;18.07;;;14.97;;
9398;SDS011;4739;49.334;8.792;2022-12-29T00:26:43;15.93;;;13.90;;
9398;SDS011;4739;49.334;8.792;2022-12-29T00:29:28;15.70;;;13.50;;
9398;SDS011;4739;49.334;8.792;2022-12-29T00:32:12;18.07;;;14.43;;
9398;SDS011;4739;49.334;8.792;2022-12-29T00:34:56;17.03;;;14.37;;
9398;SDS011;4739;49.334;8.792;2022-12-29T00:37:35;19.57;;;15.13;;
9398;SDS011;4739;49.334;8.792;2022-12-29T00:40:27;21.20;;;16.30;;
9398;SDS011;4739;49.334;8.792;2022-12-29T00:43:11;21.00;;;16.40;;
9398;SDS011;4739;49.334;8.792;2022-12-29T00:45:55;21.37;;;16.20;;
9398;SDS011;4739;49.334;8.792;2022-12-29T00:48:20;20.83;;;15.17;;
9398;SDS011;4739;49.334;8.792;2022-12-29T00:51:05;18.27;;;14.50;;
9398;SDS011;4739;49.334;8.792;2022-12-29T00:53:32;17.47;;;14.80;;
9398;SDS011;4739;49.334;8.792;2022-12-29T00:55:58;20.10;;;15.57;;
9398;SDS011;4739;49.334;8.792;2022-12-29T00:58:23;18.73;;;14.27;;
9398;SDS011;4739;49.334;8.792;2022-12-29T01:00:51;15.13;;;12.87;;
9398;SDS011;4739;49.334;8.792;2022-12-29T01:03:16;15.97;;;13.47;;
9398;SDS011;4739;49.334;8.792;2022-12-29T01:05:42;19.57;;;13.90;;
9398;SDS011;4739;49.334;8.792;2022-12-29T01:08:08;12.13;;;10.33;;
9398;SDS011;4739;49.334;8.792;2022-12-29T01:10:33;14.67;;;10.97;;
9398;SDS011;4739;49.334;8.792;2022-12-29T01:12:59;12.20;;;9.80;;
9398;SDS011;4739;49.334;8.792;2022-12-29T01:15:24;12.73;;;9.80;;
9398;SDS011;4739;49.334;8.792;2022-12-29T01:17:50;8.67;;;7.10;;
9398;SDS011;4739;49.334;8.792;2022-12-29T01:20:15;9.80;;;7.37;;
9398;SDS011;4739;49.334;8.792;2022-12-29T01:22:41;10.37;;;8.13;;
9398;SDS011;4739;49.334;8.792;2022-12-29T01:25:08;11.33;;;6.97;;
9398;SDS011;4739;49.334;8.792;2022-12-29T01:27:34;9.27;;;5.60;;
9398;SDS011;4739;49.334;8.792;2022-12-29T01:29:59;8.43;;;4.43;;
9398;SDS011;4739;49.334;8.792;2022-12-29T01:32:25;5.90;;;3.80;;
9398;SDS011;4739;49.334;8.792;2022-12-29T01:34:50;3.00;;;2.00;;
9398;SDS011;4739;49.334;8.792;2022-12-29T01:37:16;4.43;;;2.60;;
9398;SDS011;4739;49.334;8.792;2022-12-29T01:39:41;3.97;;;2.33;;
9398;SDS011;4739;49.334;8.792;2022-12-29T01:42:12;6.03;;;4.03;;
9398;SDS011;4739;49.334;8.792;2022-12-29T01:44:52;7.73;;;4.20;;
9398;SDS011;4739;49.334;8.792;2022-12-29T01:47:32;4.43;;;3.10;;
9398;SDS011;4739;49.334;8.792;2022-12-29T01:50:12;3.90;;;2.60;;
9398;SDS011;4739;49.334;8.792;2022-12-29T01:52:47;5.37;;;3.20;;
9398;SDS011;4739;49.334;8.792;2022-12-29T01:55:23;4.50;;;3.00;;
9398;SDS011;4739;49.334;8.792;2022-12-29T01:57:51;3.67;;;2.53;;
9398;SDS011;4739;49.334;8.792;2022-12-29T02:00:20;10.27;;;5.97;;
9398;SDS011;4739;49.334;8.792;2022-12-29T02:02:50;5.20;;;3.23;;
9398;SDS011;4739;49.334;8.792;2022-12-29T02:05:39;9.90;;;6.07;;
9398;SDS011;4739;49.334;8.792;2022-12-29T02:08:10;2.50;;;1.80;;
9398;SDS011;4739;49.334;8.792;2022-12-29T02:10:37;3.50;;;2.37;;
9398;SDS011;4739;49.334;8.792;2022-12-29T02:13:05;4.07;;;2.53;;
9398;SDS011;4739;49.334;8.792;2022-12-29T02:18:08;4.30;;;1.90;;
9398;SDS011;4739;49.334;8.792;2022-12-29T02:23:48;3.90;;;2.10;;
9398;SDS011;4739;49.334;8.792;2022-12-29T02:29:04;9.83;;;3.90;;
9398;SDS011;4739;49.334;8.792;2022-12-29T02:34:27;5.00;;;2.40;;
9398;SDS011;4739;49.334;8.792;2022-12-29T02:37:15;3.60;;;2.03;;
9398;SDS011;4739;49.334;8.792;2022-12-29T02:43:02;3.70;;;1.90;;
9398;SDS011;4739;49.334;8.792;2022-12-29T02:53:33;3.73;;;2.20;;
9398;SDS011;4739;49.334;8.792;2022-12-29T02:56:19;3.67;;;1.80;;
9398;SDS011;4739;49.334;8.792;2022-12-29T02:58:45;2.53;;;1.90;;
9398;SDS011;4739;49.334;8.792;2022-12-29T03:06:17;1.90;;;1.70;;
9398;SDS011;4739;49.334;8.792;2022-12-29T03:08:50;4.97;;;2.73;;
9398;SDS011;4739;49.334;8.792;2022-12-29T03:11:18;3.67;;;1.83;;
9398;SDS011;4739;49.334;8.792;2022-12-29T03:16:56;4.20;;;2.23;;
9398;SDS011;4739;49.334;8.792;2022-12-29T03:19:37;3.07;;;2.43;;
9398;SDS011;4739;49.334;8.792;2022-12-29T03:22:10;2.30;;;1.83;;
9398;SDS011;4739;49.334;8.792;2022-12-29T03:25:03;1.77;;;1.50;;
9398;SDS011;4739;49.334;8.792;2022-12-29T03:27:36;4.40;;;1.60;;
9398;SDS011;4739;49.334;8.792;2022-12-29T03:30:16;2.40;;;1.83;;
9398;SDS011;4739;49.334;8.792;2022-12-29T03:32:44;4.07;;;1.60;;
9398;SDS011;4739;49.334;8.792;2022-12-29T03:35:18;2.00;;;1.70;;
9398;SDS011;4739;49.334;8.792;2022-12-29T03:37:51;3.10;;;2.17;;
9398;SDS011;4739;49.334;8.792;2022-12-29T03:40:30;3.67;;;2.10;;
9398;SDS011;4739;49.334;8.792;2022-12-29T03:42:57;4.17;;;1.90;;
9398;SDS011;4739;49.334;8.792;2022-12-29T03:45:23;2.57;;;1.77;;
9398;SDS011;4739;49.334;8.792;2022-12-29T03:47:49;3.97;;;1.70;;
9398;SDS011;4739;49.334;8.792;2022-12-29T03:50:16;2.83;;;1.73;;
9398;SDS011;4739;49.334;8.792;2022-12-29T03:52:41;3.77;;;2.10;;
9398;SDS011;4739;49.334;8.792;2022-12-29T03:55:07;4.17;;;2.00;;
9398;SDS011;4739;49.334;8.792;2022-12-29T03:57:33;6.73;;;1.87;;
9398;SDS011;4739;49.334;8.792;2022-12-29T03:59:58;1.80;;;1.70;;
9398;SDS011;4739;49.334;8.792;2022-12-29T04:02:24;1.60;;;1.50;;
9398;SDS011;4739;49.334;8.792;2022-12-29T04:04:50;2.77;;;1.70;;
9398;SDS011;4739;49.334;8.792;2022-12-29T04:07:15;1.97;;;1.40;;
9398;SDS011;4739;49.334;8.792;2022-12-29T04:09:41;3.27;;;1.50;;
9398;SDS011;4739;49.334;8.792;2022-12-29T04:12:06;2.67;;;1.40;;
9398;SDS011;4739;49.334;8.792;2022-12-29T04:14:32;2.80;;;1.87;;
9398;SDS011;4739;49.334;8.792;2022-12-29T04:16:57;1.10;;;1.03;;
9398;SDS011;4739;49.334;8.792;2022-12-29T04:19:23;1.57;;;1.30;;
9398;SDS011;4739;49.334;8.792;2022-12-29T04:21:48;2.40;;;1.60;;
9398;SDS011;4739;49.334;8.792;2022-12-29T04:24:14;1.87;;;1.57;;
9398;SDS011;4739;49.334;8.792;2022-12-29T04:26:40;4.80;;;1.53;;
9398;SDS011;4739;49.334;8.792;2022-12-29T04:29:06;1.43;;;1.20;;
9398;SDS011;4739;49.334;8.792;2022-12-29T04:31:33;2.37;;;1.37;;
9398;SDS011;4739;49.334;8.792;2022-12-29T04:33:59;2.93;;;1.27;;
9398;SDS011;4739;49.334;8.792;2022-12-29T04:36:25;2.13;;;1.20;;
9398;SDS011;4739;49.334;8.792;2022-12-29T04:38:51;2.63;;;1.30;;
9398;SDS011;4739;49.334;8.792;2022-12-29T04:41:16;2.13;;;1.17;;
9398;SDS011;4739;49.334;8.792;2022-12-29T04:43:42;3.20;;;1.30;;
9398;SDS011;4739;49.334;8.792;2022-12-29T04:46:08;1.57;;;1.40;;
9398;SDS011;4739;49.334;8.792;2022-12-29T04:48:33;2.80;;;1.33;;
9398;SDS011;4739;49.334;8.792;2022-12-29T04:50:59;2.43;;;1.33;;
9398;SDS011;4739;49.334;8.792;2022-12-29T04:53:25;1.87;;;1.60;;
9398;SDS011;4739;49.334;8.792;2022-12-29T04:55:51;2.40;;;1.40;;
9398;SDS011;4739;49.334;8.792;2022-12-29T04:58:17;2.50;;;1.30;;
9398;SDS011;4739;49.334;8.792;2022-12-29T05:00:46;2.40;;;1.10;;
9398;SDS011;4739;49.334;8.792;2022-12-29T05:03:12;1.33;;;1.00;;
9398;SDS011;4739;49.334;8.792;2022-12-29T05:05:38;2.57;;;1.23;;
9398;SDS011;4739;49.334;8.792;2022-12-29T05:08:04;2.03;;;1.10;;
9398;SDS011;4739;49.334;8.792;2022-12-29T05:10:30;1.50;;;1.10;;
9398;SDS011;4739;49.334;8.792;2022-12-29T05:12:55;2.00;;;1.30;;
9398;SDS011;4739;49.334;8.792;2022-12-29T05:15:22;4.17;;;1.30;;
9398;SDS011;4739;49.334;8.792;2022-12-29T05:17:47;3.33;;;1.43;;
9398;SDS011;4739;49.334;8.792;2022-12-29T05:20:13;1.70;;;1.40;;
9398;SDS011;4739;49.334;8.792;2022-12-29T05:22:39;1.30;;;1.20;;
9398;SDS011;4739;49.334;8.792;2022-12-29T05:25:04;2.70;;;1.40;;
9398;SDS011;4739;49.334;8.792;2022-12-29T05:27:30;2.13;;;1.10;;
9398;SDS011;4739;49.334;8.792;2022-12-29T05:29:56;1.80;;;1.20;;
9398;SDS011;4739;49.334;8.792;2022-12-29T05:32:21;1.30;;;1.20;;
9398;SDS011;4739;49.334;8.792;2022-12-29T05:34:47;1.67;;;1.27;;
9398;SDS011;4739;49.334;8.792;2022-12-29T05:37:12;2.43;;;1.50;;
9398;SDS011;4739;49.334;8.792;2022-12-29T05:39:38;2.37;;;1.30;;
9398;SDS011;4739;49.334;8.792;2022-12-29T05:42:04;3.07;;;1.20;;
9398;SDS011;4739;49.334;8.792;2022-12-29T05:44:29;2.80;;;1.43;;
9398;SDS011;4739;49.334;8.792;2022-12-29T05:46:55;2.77;;;1.40;;
9398;SDS011;4739;49.334;8.792;2022-12-29T05:49:21;3.07;;;1.30;;
9398;SDS011;4739;49.334;8.792;2022-12-29T05:51:46;1.83;;;1.30;;
9398;SDS011;4739;49.334;8.792;2022-12-29T05:54:12;2.27;;;1.40;;
9398;SDS011;4739;49.334;8.792;2022-12-29T05:56:37;2.60;;;1.37;;
9398;SDS011;4739;49.334;8.792;2022-12-29T05:59:03;4.27;;;1.23;;
9398;SDS011;4739;49.334;8.792;2022-12-29T06:01:28;3.43;;;1.50;;
9398;SDS011;4739;49.334;8.792;2022-12-29T06:03:54;2.50;;;1.40;;
9398;SDS011;4739;49.334;8.792;2022-12-29T06:06:20;2.20;;;1.27;;
9398;SDS011;4739;49.334;8.792;2022-12-29T06:08:45;2.20;;;1.20;;
9398;SDS011;4739;49.334;8.792;2022-12-29T06:11:11;2.67;;;1.30;;
9398;SDS011;4739;49.334;8.792;2022-12-29T06:13:37;1.43;;;1.10;;
9398;SDS011;4739;49.334;8.792;2022-12-29T06:16:02;1.97;;;1.30;;
9398;SDS011;4739;49.334;8.792;2022-12-29T06:18:28;1.97;;;1.20;;
9398;SDS011;4739;49.334;8.792;2022-12-29T06:20:54;2.17;;;1.27;;
9398;SDS011;4739;49.334;8.792;2022-12-29T06:23:23;1.90;;;1.40;;
9398;SDS011;4739;49.334;8.792;2022-12-29T06:25:49;2.17;;;1.60;;
9398;SDS011;4739;49.334;8.792;2022-12-29T06:28:14;1.77;;;1.63;;
9398;SDS011;4739;49.334;8.792;2022-12-29T06:30:42;2.20;;;1.57;;
9398;SDS011;4739;49.334;8.792;2022-12-29T06:33:09;1.77;;;1.37;;
9398;SDS011;4739;49.334;8.792;2022-12-29T06:35:35;1.60;;;1.33;;
9398;SDS011;4739;49.334;8.792;2022-12-29T06:38:00;1.73;;;1.40;;
9398;SDS011;4739;49.334;8.792;2022-12-29T06:40:26;1.40;;;1.30;;
9398;SDS011;4739;49.334;8.792;2022-12-29T06:42:51;5.53;;;2.67;;
9398;SDS011;4739;49.334;8.792;2022-12-29T06:45:17;2.30;;;1.70;;
9398;SDS011;4739;49.334;8.792;2022-12-29T06:47:43;3.30;;;1.90;;
9398;SDS011;4739;49.334;8.792;2022-12-29T06:50:08;2.60;;;1.50;;
9398;SDS011;4739;49.334;8.792;2022-12-29T06:52:34;2.77;;;1.67;;
9398;SDS011;4739;49.334;8.792;2022-12-29T06:54:59;2.50;;;1.90;;
9398;SDS011;4739;49.334;8.792;2022-12-29T06:57:25;1.50;;;1.33;;
9398;SDS011;4739;49.334;8.792;2022-12-29T06:59:51;5.17;;;3.20;;
9398;SDS011;4739;49.334;8.792;2022-12-29T07:02:17;3.07;;;1.70;;
9398;SDS011;4739;49.334;8.792;2022-12-29T07:04:45;3.20;;;2.27;;
9398;SDS011;4739;49.334;8.792;2022-12-29T07:07:11;5.73;;;3.20;;
9398;SDS011;4739;49.334;8.792;2022-12-29T07:09:36;2.50;;;2.07;;
9398;SDS011;4739;49.334;8.792;2022-12-29T07:12:02;2.33;;;1.73;;
9398;SDS011;4739;49.334;8.792;2022-12-29T07:14:28;3.90;;;2.50;;
9398;SDS011;4739;49.334;8.792;2022-12-29T07:16:53;2.57;;;2.00;;
9398;SDS011;4739;49.334;8.792;2022-12-29T07:19:19;2.53;;;2.20;;
9398;SDS011;4739;49.334;8.792;2022-12-29T07:21:45;2.53;;;2.10;;
9398;SDS011;4739;49.334;8.792;2022-12-29T07:24:10;5.17;;;2.53;;
9398;SDS011;4739;49.334;8.792;2022-12-29T07:26:36;3.50;;;2.60;;
9398;SDS011;4739;49.334;8.792;2022-12-29T07:29:04;2.83;;;1.83;;
9398;SDS011;4739;49.334;8.792;2022-12-29T07:31:30;16.23;;;11.50;;
9398;SDS011;4739;49.334;8.792;2022-12-29T07:33:56;11.07;;;8.87;;
9398;SDS011;4739;49.334;8.792;2022-12-29T07:36:21;6.60;;;5.63;;
9398;SDS011;4739;49.334;8.792;2022-12-29T07:38:47;5.50;;;3.40;;
9398;SDS011;4739;49.334;8.792;2022-12-29T07:41:12;2.87;;;1.97;;
9398;SDS011;4739;49.334;8.792;2022-12-29T07:43:38;5.30;;;2.00;;
9398;SDS011;4739;49.334;8.792;2022-12-29T07:46:04;7.63;;;4.73;;
9398;SDS011;4739;49.334;8.792;2022-12-29T07:48:29;6.60;;;4.20;;
9398;SDS011;4739;49.334;8.792;2022-12-29T07:50:55;5.63;;;3.03;;
9398;SDS011;4739;49.334;8.792;2022-12-29T07:53:20;5.00;;;2.67;;
9398;SDS011;4739;49.334;8.792;2022-12-29T07:55:46;2.80;;;2.20;;
9398;SDS011;4739;49.334;8.792;2022-12-29T07:58:12;2.63;;;2.20;;
9398;SDS011;4739;49.334;8.792;2022-12-29T08:00:37;3.43;;;2.50;;
9398;SDS011;4739;49.334;8.792;2022-12-29T08:03:04;2.80;;;1.80;;
9398;SDS011;4739;49.334;8.792;2022-12-29T08:05:30;2.97;;;1.70;;
9398;SDS011;4739;49.334;8.792;2022-12-29T08:07:56;2.67;;;1.50;;
9398;SDS011;4739;49.334;8.792;2022-12-29T08:10:22;2.57;;;1.80;;
9398;SDS011;4739;49.334;8.792;2022-12-29T08:12:48;3.00;;;1.60;;
9398;SDS011;4739;49.334;8.792;2022-12-29T08:15:14;6.53;;;1.77;;
9398;SDS011;4739;49.334;8.792;2022-12-29T08:17:39;3.10;;;1.70;;
9398;SDS011;4739;49.334;8.792;2022-12-29T08:20:05;2.50;;;1.70;;
9398;SDS011;4739;49.334;8.792;2022-12-29T08:22:31;2.60;;;1.80;;
9398;SDS011;4739;49.334;8.792;2022-12-29T08:24:57;3.13;;;1.70;;
9398;SDS011;4739;49.334;8.792;2022-12-29T08:27:22;3.30;;;1.70;;
9398;SDS011;4739;49.334;8.792;2022-12-29T08:29:48;2.90;;;1.70;;
9398;SDS011;4739;49.334;8.792;2022-12-29T08:32:14;3.03;;;1.90;;
9398;SDS011;4739;49.334;8.792;2022-12-29T08:34:40;2.57;;;1.97;;
9398;SDS011;4739;49.334;8.792;2022-12-29T08:37:05;3.77;;;2.03;;
9398;SDS011;4739;49.334;8.792;2022-12-29T08:39:31;3.60;;;1.57;;
9398;SDS011;4739;49.334;8.792;2022-12-29T08:41:56;3.53;;;1.70;;
9398;SDS011;4739;49.334;8.792;2022-12-29T08:44:22;2.27;;;1.70;;
9398;SDS011;4739;49.334;8.792;2022-12-29T08:46:47;2.87;;;2.00;;
9398;SDS011;4739;49.334;8.792;2022-12-29T08:49:13;1.70;;;1.60;;
9398;SDS011;4739;49.334;8.792;2022-12-29T08:51:39;3.67;;;1.70;;
9398;SDS011;4739;49.334;8.792;2022-12-29T08:54:05;2.70;;;1.90;;
9398;SDS011;4739;49.334;8.792;2022-12-29T08:56:30;1.67;;;1.40;;
9398;SDS011;4739;49.334;8.792;2022-12-29T08:58:56;1.60;;;1.50;;
9398;SDS011;4739;49.334;8.792;2022-12-29T09:01:21;2.60;;;1.50;;
9398;SDS011;4739;49.334;8.792;2022-12-29T09:03:47;3.60;;;2.27;;
9398;SDS011;4739;49.334;8.792;2022-12-29T09:06:13;4.27;;;2.07;;
9398;SDS011;4739;49.334;8.792;2022-12-29T09:08:40;2.93;;;1.80;;
9398;SDS011;4739;49.334;8.792;2022-12-29T09:11:06;2.00;;;1.70;;
9398;SDS011;4739;49.334;8.792;2022-12-29T09:13:37;2.37;;;1.50;;
9398;SDS011;4739;49.334;8.792;2022-12-29T09:16:03;2.90;;;1.53;;
9398;SDS011;4739;49.334;8.792;2022-12-29T09:18:29;2.87;;;1.90;;
9398;SDS011;4739;49.334;8.792;2022-12-29T09:20:56;4.87;;;2.03;;
9398;SDS011;4739;49.334;8.792;2022-12-29T09:23:25;3.13;;;2.20;;
9398;SDS011;4739;49.334;8.792;2022-12-29T09:25:51;3.30;;;2.57;;
9398;SDS011;4739;49.334;8.792;2022-12-29T09:28:17;2.20;;;2.00;;
9398;SDS011;4739;49.334;8.792;2022-12-29T09:30:43;3.27;;;1.70;;
9398;SDS011;4739;49.334;8.792;2022-12-29T09:33:09;4.20;;;1.80;;
9398;SDS011;4739;49.334;8.792;2022-12-29T09:35:34;3.83;;;1.90;;
9398;SDS011;4739;49.334;8.792;2022-12-29T09:38:00;3.13;;;2.10;;
9398;SDS011;4739;49.334;8.792;2022-12-29T09:40:27;2.57;;;1.77;;
9398;SDS011;4739;49.334;8.792;2022-12-29T09:43:00;3.10;;;1.73;;
9398;SDS011;4739;49.334;8.792;2022-12-29T09:48:04;2.43;;;1.77;;
9398;SDS011;4739;49.334;8.792;2022-12-29T09:50:36;2.73;;;1.80;;
9398;SDS011;4739;49.334;8.792;2022-12-29T09:55:38;3.23;;;1.93;;
9398;SDS011;4739;49.334;8.792;2022-12-29T09:58:10;2.77;;;1.90;;
9398;SDS011;4739;49.334;8.792;2022-12-29T10:00:50;4.93;;;2.03;;
9398;SDS011;4739;49.334;8.792;2022-12-29T10:03:42;2.80;;;2.30;;
9398;SDS011;4739;49.334;8.792;2022-12-29T10:06:20;3.90;;;1.90;;
9398;SDS011;4739;49.334;8.792;2022-12-29T10:25:43;5.73;;;2.97;;
9398;SDS011;4739;49.334;8.792;2022-12-29T10:28:20;2.30;;;1.90;;
9398;SDS011;4739;49.334;8.792;2022-12-29T10:31:01;3.00;;;2.03;;
9398;SDS011;4739;49.334;8.792;2022-12-29T10:33:36;3.43;;;2.77;;
9398;SDS011;4739;49.334;8.792;2022-12-29T10:36:19;3.97;;;2.50;;
9398;SDS011;4739;49.334;8.792;2022-12-29T10:41:36;2.70;;;2.20;;
9398;SDS011;4739;49.334;8.792;2022-12-29T10:44:07;2.37;;;1.70;;
9398;SDS011;4739;49.334;8.792;2022-12-29T10:46:37;6.83;;;2.10;;
9398;SDS011;4739;49.334;8.792;2022-12-29T10:49:03;2.67;;;2.07;;
9398;SDS011;4739;49.334;8.792;2022-12-29T10:51:34;2.53;;;2.30;;
9398;SDS011;4739;49.334;8.792;2022-12-29T10:54:05;2.67;;;2.03;;
9398;SDS011;4739;49.334;8.792;2022-12-29T10:56:46;2.53;;;2.03;;
9398;SDS011;4739;49.334;8.792;2022-12-29T11:01:58;2.53;;;1.67;;
9398;SDS011;4739;49.334;8.792;2022-12-29T11:07:22;2.40;;;1.50;;
9398;SDS011;4739;49.334;8.792;2022-12-29T11:09:48;2.73;;;1.50;;
9398;SDS011;4739;49.334;8.792;2022-12-29T11:12:24;3.10;;;1.40;;
9398;SDS011;4739;49.334;8.792;2022-12-29T11:15:06;2.13;;;1.40;;
9398;SDS011;4739;49.334;8.792;2022-12-29T11:17:49;1.83;;;1.30;;
9398;SDS011;4739;49.334;8.792;2022-12-29T11:20:32;2.40;;;1.90;;
9398;SDS011;4739;49.334;8.792;2022-12-29T11:23:00;2.10;;;1.30;;
9398;SDS011;4739;49.334;8.792;2022-12-29T11:25:27;1.27;;;1.13;;
9398;SDS011;4739;49.334;8.792;2022-12-29T11:30:23;2.27;;;1.60;;
9398;SDS011;4739;49.334;8.792;2022-12-29T11:32:50;3.60;;;2.53;;
9398;SDS011;4739;49.334;8.792;2022-12-29T11:35:38;5.97;;;4.73;;
9398;SDS011;4739;49.334;8.792;2022-12-29T11:38:06;4.80;;;3.73;;
9398;SDS011;4739;49.334;8.792;2022-12-29T11:40:53;3.03;;;2.07;;
9398;SDS011;4739;49.334;8.792;2022-12-29T11:43:31;2.80;;;2.60;;
9398;SDS011;4739;49.334;8.792;2022-12-29T11:45:59;3.97;;;2.00;;
9398;SDS011;4739;49.334;8.792;2022-12-29T11:48:29;3.40;;;1.70;;
9398;SDS011;4739;49.334;8.792;2022-12-29T11:51:04;2.33;;;1.70;;
9398;SDS011;4739;49.334;8.792;2022-12-29T11:53:45;2.93;;;1.70;;
9398;SDS011;4739;49.334;8.792;2022-12-29T11:56:19;2.20;;;1.50;;
9398;SDS011;4739;49.334;8.792;2022-12-29T11:58:47;1.87;;;1.40;;
9398;SDS011;4739;49.334;8.792;2022-12-29T12:03:57;3.23;;;1.80;;
9398;SDS011;4739;49.334;8.792;2022-12-29T12:06:35;3.07;;;1.60;;
9398;SDS011;4739;49.334;8.792;2022-12-29T12:11:56;2.80;;;2.03;;
9398;SDS011;4739;49.334;8.792;2022-12-29T12:14:28;2.83;;;1.73;;
9398;SDS011;4739;49.334;8.792;2022-12-29T12:25:47;3.30;;;1.63;;
9398;SDS011;4739;49.334;8.792;2022-12-29T12:28:33;3.47;;;1.80;;
9398;SDS011;4739;49.334;8.792;2022-12-29T12:31:03;3.53;;;2.27;;
9398;SDS011;4739;49.334;8.792;2022-12-29T12:33:37;2.87;;;1.63;;
9398;SDS011;4739;49.334;8.792;2022-12-29T12:41:43;2.87;;;2.57;;
9398;SDS011;4739;49.334;8.792;2022-12-29T12:53:01;1.40;;;1.30;;
9398;SDS011;4739;49.334;8.792;2022-12-29T13:00:38;1.90;;;1.50;;
9398;SDS011;4739;49.334;8.792;2022-12-29T13:17:36;1.80;;;1.50;;
9398;SDS011;4739;49.334;8.792;2022-12-29T13:25:57;2.53;;;1.87;;
9398;SDS011;4739;49.334;8.792;2022-12-29T13:31:52;2.43;;;1.70;;
9398;SDS011;4739;49.334;8.792;2022-12-29T13:37:20;3.53;;;2.40;;
9398;SDS011;4739;49.334;8.792;2022-12-29T13:42:49;2.20;;;1.80;;
9398;SDS011;4739;49.334;8.792;2022-12-29T13:45:19;2.63;;;1.80;;
9398;SDS011;4739;49.334;8.792;2022-12-29T13:47:59;2.33;;;1.60;;
9398;SDS011;4739;49.334;8.792;2022-12-29T13:50:27;2.80;;;1.70;;
9398;SDS011;4739;49.334;8.792;2022-12-29T13:55:53;3.10;;;2.07;;
9398;SDS011;4739;49.334;8.792;2022-12-29T14:03:52;3.87;;;1.43;;
9398;SDS011;4739;49.334;8.792;2022-12-29T14:06:27;2.87;;;1.63;;
9398;SDS011;4739;49.334;8.792;2022-12-29T14:09:01;1.90;;;1.40;;
9398;SDS011;4739;49.334;8.792;2022-12-29T14:11:36;3.23;;;1.80;;
9398;SDS011;4739;49.334;8.792;2022-12-29T14:14:16;2.90;;;1.60;;
9398;SDS011;4739;49.334;8.792;2022-12-29T14:16:45;2.57;;;1.70;;
9398;SDS011;4739;49.334;8.792;2022-12-29T14:19:16;2.30;;;1.63;;
9398;SDS011;4739;49.334;8.792;2022-12-29T14:21:49;1.93;;;1.60;;
9398;SDS011;4739;49.334;8.792;2022-12-29T14:34:52;4.13;;;3.83;;
9398;SDS011;4739;49.334;8.792;2022-12-29T14:37:31;3.50;;;3.20;;
9398;SDS011;4739;49.334;8.792;2022-12-29T14:40:18;4.43;;;2.70;;
9398;SDS011;4739;49.334;8.792;2022-12-29T14:42:48;3.47;;;2.47;;
9398;SDS011;4739;49.334;8.792;2022-12-29T14:47:45;3.53;;;2.80;;
9398;SDS011;4739;49.334;8.792;2022-12-29T14:50:17;4.00;;;2.87;;
9398;SDS011;4739;49.334;8.792;2022-12-29T14:53:03;3.37;;;1.90;;
9398;SDS011;4739;49.334;8.792;2022-12-29T14:58:05;2.97;;;2.67;;
9398;SDS011;4739;49.334;8.792;2022-12-29T15:00:37;3.07;;;2.10;;
9398;SDS011;4739;49.334;8.792;2022-12-29T15:05:41;3.37;;;2.77;;
9398;SDS011;4739;49.334;8.792;2022-12-29T15:08:20;2.83;;;2.10;;
9398;SDS011;4739;49.334;8.792;2022-12-29T15:10:55;2.20;;;1.60;;
9398;SDS011;4739;49.334;8.792;2022-12-29T15:13:38;3.87;;;1.50;;
9398;SDS011;4739;49.334;8.792;2022-12-29T15:18:48;4.40;;;2.97;;
9398;SDS011;4739;49.334;8.792;2022-12-29T15:21:14;2.53;;;1.60;;
9398;SDS011;4739;49.334;8.792;2022-12-29T15:23:41;4.67;;;3.60;;
9398;SDS011;4739;49.334;8.792;2022-12-29T15:26:10;4.20;;;3.53;;
9398;SDS011;4739;49.334;8.792;2022-12-29T15:28:37;8.40;;;6.77;;
9398;SDS011;4739;49.334;8.792;2022-12-29T15:31:05;6.00;;;4.40;;
9398;SDS011;4739;49.334;8.792;2022-12-29T15:33:39;4.93;;;3.73;;
9398;SDS011;4739;49.334;8.792;2022-12-29T15:36:10;3.77;;;2.70;;
9398;SDS011;4739;49.334;8.792;2022-12-29T15:38:46;5.20;;;4.33;;
9398;SDS011;4739;49.334;8.792;2022-12-29T15:44:25;11.93;;;8.47;;
9398;SDS011;4739;49.334;8.792;2022-12-29T15:47:12;12.83;;;9.47;;
9398;SDS011;4739;49.334;8.792;2022-12-29T15:49:49;6.97;;;5.20;;
9398;SDS011;4739;49.334;8.792;2022-12-29T15:52:19;3.80;;;2.20;;
9398;SDS011;4739;49.334;8.792;2022-12-29T15:54:46;2.97;;;1.93;;
9398;SDS011;4739;49.334;8.792;2022-12-29T15:59:48;3.70;;;2.00;;
9398;SDS011;4739;49.334;8.792;2022-12-29T16:02:13;2.53;;;2.07;;
9398;SDS011;4739;49.334;8.792;2022-12-29T16:04:39;2.60;;;1.70;;
9398;SDS011;4739;49.334;8.792;2022-12-29T16:07:19;5.00;;;1.77;;
9398;SDS011;4739;49.334;8.792;2022-12-29T16:09:47;4.43;;;1.50;;
9398;SDS011;4739;49.334;8.792;2022-12-29T16:12:19;4.13;;;1.80;;
9398;SDS011;4739;49.334;8.792;2022-12-29T16:14:47;2.70;;;1.60;;
9398;SDS011;4739;49.334;8.792;2022-12-29T16:17:15;2.60;;;1.93;;
9398;SDS011;4739;49.334;8.792;2022-12-29T16:19:49;4.77;;;2.30;;
9398;SDS011;4739;49.334;8.792;2022-12-29T16:22:17;2.57;;;1.60;;
9398;SDS011;4739;49.334;8.792;2022-12-29T16:24:46;3.67;;;1.57;;
9398;SDS011;4739;49.334;8.792;2022-12-29T16:27:20;3.73;;;2.17;;
9398;SDS011;4739;49.334;8.792;2022-12-29T16:29:49;2.50;;;1.77;;
9398;SDS011;4739;49.334;8.792;2022-12-29T16:32:22;7.90;;;6.40;;
9398;SDS011;4739;49.334;8.792;2022-12-29T16:34:51;2.83;;;2.20;;
9398;SDS011;4739;49.334;8.792;2022-12-29T16:37:29;4.20;;;2.20;;
9398;SDS011;4739;49.334;8.792;2022-12-29T16:39:57;3.40;;;1.80;;
9398;SDS011;4739;49.334;8.792;2022-12-29T16:43:00;5.90;;;2.47;;
9398;SDS011;4739;49.334;8.792;2022-12-29T16:50:39;3.50;;;2.83;;
9398;SDS011;4739;49.334;8.792;2022-12-29T16:53:05;9.60;;;6.57;;
9398;SDS011;4739;49.334;8.792;2022-12-29T16:55:32;8.73;;;7.83;;
9398;SDS011;4739;49.334;8.792;2022-12-29T16:57:58;8.70;;;6.90;;
9398;SDS011;4739;49.334;8.792;2022-12-29T17:00:26;6.17;;;5.57;;
9398;SDS011;4739;49.334;8.792;2022-12-29T17:02:53;4.13;;;2.67;;
9398;SDS011;4739;49.334;8.792;2022-12-29T17:05:20;2.87;;;2.20;;
9398;SDS011;4739;49.334;8.792;2022-12-29T17:07:46;3.90;;;2.83;;
9398;SDS011;4739;49.334;8.792;2022-12-29T17:10:13;6.40;;;3.40;;
9398;SDS011;4739;49.334;8.792;2022-12-29T17:12:39;3.60;;;2.40;;
9398;SDS011;4739;49.334;8.792;2022-12-29T17:15:07;4.43;;;3.00;;
9398;SDS011;4739;49.334;8.792;2022-12-29T17:17:44;3.13;;;2.17;;
9398;SDS011;4739;49.334;8.792;2022-12-29T17:22:42;5.30;;;4.30;;
9398;SDS011;4739;49.334;8.792;2022-12-29T17:25:13;6.43;;;5.07;;
9398;SDS011;4739;49.334;8.792;2022-12-29T17:27:49;6.53;;;5.10;;
9398;SDS011;4739;49.334;8.792;2022-12-29T17:30:17;6.13;;;5.37;;
9398;SDS011;4739;49.334;8.792;2022-12-29T17:32:48;3.93;;;2.23;;
9398;SDS011;4739;49.334;8.792;2022-12-29T17:35:17;4.17;;;3.77;;
9398;SDS011;4739;49.334;8.792;2022-12-29T17:37:43;4.40;;;2.97;;
9398;SDS011;4739;49.334;8.792;2022-12-29T17:40:11;3.13;;;2.53;;
9398;SDS011;4739;49.334;8.792;2022-12-29T17:42:40;4.17;;;3.27;;
9398;SDS011;4739;49.334;8.792;2022-12-29T17:45:11;8.83;;;6.17;;
9398;SDS011;4739;49.334;8.792;2022-12-29T17:47:37;5.83;;;4.53;;
9398;SDS011;4739;49.334;8.792;2022-12-29T17:50:03;6.07;;;3.77;;
9398;SDS011;4739;49.334;8.792;2022-12-29T17:52:30;3.03;;;2.30;;
9398;SDS011;4739;49.334;8.792;2022-12-29T17:54:57;4.57;;;3.30;;
9398;SDS011;4739;49.334;8.792;2022-12-29T17:57:24;4.53;;;2.80;;
9398;SDS011;4739;49.334;8.792;2022-12-29T17:59:50;3.33;;;2.33;;
9398;SDS011;4739;49.334;8.792;2022-12-29T18:04:45;6.33;;;3.23;;
9398;SDS011;4739;49.334;8.792;2022-12-29T18:07:11;5.83;;;3.67;;
9398;SDS011;4739;49.334;8.792;2022-12-29T18:09:37;4.10;;;3.43;;
9398;SDS011;4739;49.334;8.792;2022-12-29T18:12:03;6.67;;;3.37;;
9398;SDS011;4739;49.334;8.792;2022-12-29T18:14:30;5.90;;;2.80;;
9398;SDS011;4739;49.334;8.792;2022-12-29T18:16:56;4.57;;;2.83;;
9398;SDS011;4739;49.334;8.792;2022-12-29T18:19:22;5.90;;;2.80;;